createdAt,value
2023-01-25T00:02:25.324Z,21.03
2023-01-25T00:04:56.648Z,19.73
2023-01-25T00:07:27.914Z,23.13
2023-01-25T00:09:59.166Z,20.73
2023-01-25T00:12:30.420Z,18.83
2023-01-25T00:15:01.709Z,18.57
2023-01-25T00:17:32.974Z,22.37
2023-01-25T00:20:04.672Z,19.07
2023-01-25T00:22:35.939Z,22.43
2023-01-25T00:25:07.875Z,22.67
2023-01-25T00:27:40.058Z,26.53
2023-01-25T00:30:11.654Z,21.90
2023-01-25T00:32:58.397Z,23.80
2023-01-25T00:35:34.471Z,22.08
2023-01-25T00:38:27.491Z,20.15
2023-01-25T00:40:59.017Z,29.27
2023-01-25T00:43:32.557Z,24.57
2023-01-25T00:46:03.967Z,25.43
2023-01-25T00:48:35.225Z,22.37
2023-01-25T00:51:06.503Z,20.93
2023-01-25T00:53:37.800Z,22.30
2023-01-25T00:56:09.075Z,19.80
2023-01-25T00:58:41.471Z,25.10
2023-01-25T01:01:13.251Z,23.40
2023-01-25T01:03:44.620Z,20.70
2023-01-25T01:06:16.057Z,22.93
2023-01-25T01:08:47.474Z,18.23
2023-01-25T01:11:18.969Z,19.40
2023-01-25T01:13:50.286Z,21.53
2023-01-25T01:16:21.574Z,22.37
2023-01-25T01:18:52.908Z,20.20
2023-01-25T01:21:24.173Z,20.77
2023-01-25T01:23:55.606Z,20.20
2023-01-25T01:26:26.890Z,19.13
2023-01-25T01:28:58.641Z,21.03
2023-01-25T01:31:30.188Z,19.30
2023-01-25T01:34:01.918Z,14.90
2023-01-25T01:36:33.297Z,16.87
2023-01-25T01:39:04.573Z,14.93
2023-01-25T01:41:36.950Z,14.57
2023-01-25T01:44:16.862Z,17.00
2023-01-25T01:46:54.727Z,16.03
2023-01-25T01:49:32.491Z,15.63
2023-01-25T01:52:10.753Z,14.17
2023-01-25T01:54:49.830Z,15.13
2023-01-25T01:57:34.737Z,16.50
2023-01-25T02:00:14.162Z,16.07
2023-01-25T02:02:46.626Z,16.23
2023-01-25T02:05:29.796Z,17.33
2023-01-25T02:08:05.385Z,13.10
2023-01-25T02:10:38.201Z,14.65
2023-01-25T02:13:10.141Z,15.83
2023-01-25T02:15:45.919Z,16.10
2023-01-25T02:18:19.052Z,13.80
2023-01-25T02:20:52.394Z,14.70
2023-01-25T02:23:32.889Z,16.60
2023-01-25T02:26:06.581Z,14.10
2023-01-25T02:28:44.320Z,15.70
2023-01-25T02:31:16.340Z,18.10
2023-01-25T02:33:47.838Z,18.50
2023-01-25T02:36:24.539Z,17.97
2023-01-25T02:39:09.064Z,18.97
2023-01-25T02:41:45.025Z,19.27
2023-01-25T02:44:28.563Z,15.65
2023-01-25T02:46:59.823Z,15.53
2023-01-25T02:49:31.102Z,18.07
2023-01-25T02:52:04.060Z,17.30
2023-01-25T02:54:35.329Z,21.33
2023-01-25T02:57:06.713Z,17.73
2023-01-25T02:59:38.024Z,17.57
2023-01-25T03:02:09.292Z,15.53
2023-01-25T03:04:40.601Z,16.63
2023-01-25T03:07:11.878Z,14.53
2023-01-25T03:09:43.141Z,18.70
2023-01-25T03:12:14.402Z,16.43
2023-01-25T03:14:45.669Z,17.50
2023-01-25T03:17:16.939Z,16.40
2023-01-25T03:19:48.199Z,15.47
2023-01-25T03:22:19.722Z,18.00
2023-01-25T03:24:51.074Z,16.30
2023-01-25T03:27:22.347Z,13.63
2023-01-25T03:29:53.681Z,15.63
2023-01-25T03:32:25.012Z,16.73
2023-01-25T03:34:56.382Z,17.03
2023-01-25T03:37:30.038Z,19.33
2023-01-25T03:40:01.399Z,20.23
2023-01-25T03:42:32.738Z,17.40
2023-01-25T03:45:05.436Z,15.57
2023-01-25T03:47:36.697Z,14.47
2023-01-25T03:50:08.820Z,17.87
2023-01-25T03:52:42.038Z,18.23
2023-01-25T03:55:13.395Z,20.40
2023-01-25T03:57:44.729Z,16.27
2023-01-25T04:00:16.555Z,22.67
2023-01-25T04:02:47.965Z,19.60
2023-01-25T04:05:19.338Z,16.57
2023-01-25T04:07:50.600Z,18.33
2023-01-25T04:10:21.873Z,16.57
2023-01-25T04:12:54.177Z,22.53
2023-01-25T04:15:25.546Z,13.10
2023-01-25T04:17:57.003Z,17.03
2023-01-25T04:20:28.355Z,17.47
2023-01-25T04:22:59.754Z,14.27
2023-01-25T04:25:31.051Z,16.63
2023-01-25T04:28:02.496Z,15.97
2023-01-25T04:30:33.763Z,15.97
2023-01-25T04:33:05.195Z,16.67
2023-01-25T04:35:36.484Z,15.90
2023-01-25T04:38:07.880Z,16.47
2023-01-25T04:40:39.933Z,16.43
2023-01-25T04:43:13.212Z,15.23
2023-01-25T04:45:44.706Z,15.73
2023-01-25T04:48:16.228Z,13.57
2023-01-25T04:50:47.659Z,14.97
2023-01-25T04:53:18.936Z,17.67
2023-01-25T04:55:50.217Z,15.10
2023-01-25T04:58:21.840Z,14.03
2023-01-25T05:00:53.899Z,14.27
2023-01-25T05:03:26.800Z,13.60
2023-01-25T05:05:58.995Z,17.03
2023-01-25T05:08:30.449Z,15.87
2023-01-25T05:11:01.765Z,13.13
2023-01-25T05:13:33.110Z,16.40
2023-01-25T05:16:04.739Z,15.57
2023-01-25T05:18:48.039Z,14.90
2023-01-25T05:21:38.717Z,12.00
2023-01-25T05:24:10.106Z,16.00
2023-01-25T05:27:00.077Z,16.60
2023-01-25T05:29:39.740Z,12.57
2023-01-25T05:32:21.066Z,15.33
2023-01-25T05:34:52.463Z,14.47
2023-01-25T05:37:23.736Z,14.40
2023-01-25T05:39:55.145Z,13.87
2023-01-25T05:42:26.528Z,16.87
2023-01-25T05:44:57.968Z,16.93
2023-01-25T05:47:29.276Z,19.60
2023-01-25T05:50:00.534Z,19.07
2023-01-25T05:52:31.919Z,14.30
2023-01-25T05:55:03.495Z,19.43
2023-01-25T05:57:34.753Z,16.97
2023-01-25T06:00:06.972Z,22.33
2023-01-25T06:02:38.356Z,20.20
2023-01-25T06:05:10.280Z,22.33
2023-01-25T06:07:42.819Z,19.87
2023-01-25T06:10:14.314Z,25.17
2023-01-25T06:12:45.583Z,19.30
2023-01-25T06:15:17.055Z,21.27
2023-01-25T06:17:48.424Z,19.27
2023-01-25T06:20:19.839Z,19.53
2023-01-25T06:22:51.965Z,19.23
2023-01-25T06:25:23.371Z,22.23
2023-01-25T06:27:55.355Z,22.30
2023-01-25T06:30:26.787Z,23.13
2023-01-25T06:32:58.765Z,21.13
2023-01-25T06:35:32.219Z,20.60
2023-01-25T06:38:03.562Z,20.07
2023-01-25T06:40:34.981Z,19.30
2023-01-25T06:43:10.945Z,22.57
2023-01-25T06:45:42.258Z,19.40
2023-01-25T06:48:13.818Z,18.83
2023-01-25T06:50:46.198Z,19.77
2023-01-25T06:53:17.556Z,20.43
2023-01-25T06:55:49.093Z,20.27
2023-01-25T06:58:20.443Z,18.70
2023-01-25T07:00:53.061Z,24.37
2023-01-25T07:03:24.360Z,20.57
2023-01-25T07:06:00.130Z,21.70
2023-01-25T07:08:32.279Z,21.33
2023-01-25T07:11:06.484Z,19.27
2023-01-25T07:13:37.838Z,23.47
2023-01-25T07:16:13.498Z,25.63
2023-01-25T07:18:45.582Z,23.45
2023-01-25T07:21:22.086Z,19.53
2023-01-25T07:23:53.530Z,24.63
2023-01-25T07:26:25.902Z,22.43
2023-01-25T07:28:58.715Z,25.73
2023-01-25T07:31:31.062Z,24.03
2023-01-25T07:34:03.469Z,24.67
2023-01-25T07:36:34.717Z,25.27
2023-01-25T07:39:10.102Z,20.60
2023-01-25T07:41:42.371Z,24.13
2023-01-25T07:44:13.716Z,25.40
2023-01-25T07:46:45.037Z,21.90
2023-01-25T07:49:16.370Z,27.53
2023-01-25T07:51:47.733Z,27.50
2023-01-25T07:54:19.067Z,26.70
2023-01-25T07:56:50.421Z,25.37
2023-01-25T07:59:22.716Z,26.27
2023-01-25T08:01:54.978Z,27.20
2023-01-25T08:04:26.269Z,28.37
2023-01-25T08:06:57.521Z,27.73
2023-01-25T08:09:32.013Z,27.43
2023-01-25T08:12:03.533Z,26.53
2023-01-25T08:14:35.165Z,25.80
2023-01-25T08:17:06.446Z,30.67
2023-01-25T08:19:37.899Z,26.37
2023-01-25T08:22:09.271Z,27.13
2023-01-25T08:24:40.712Z,28.53
2023-01-25T08:27:20.998Z,29.27
2023-01-25T08:29:53.749Z,26.93
2023-01-25T08:32:25.249Z,29.70
2023-01-25T08:34:58.658Z,32.03
2023-01-25T08:37:30.076Z,28.60
2023-01-25T08:40:01.477Z,30.57
2023-01-25T08:42:33.767Z,32.60
2023-01-25T08:45:06.582Z,27.40
2023-01-25T08:47:38.550Z,26.33
2023-01-25T08:50:10.913Z,28.10
2023-01-25T08:52:42.433Z,30.70
2023-01-25T08:55:13.728Z,29.53
2023-01-25T08:57:45.199Z,30.43
2023-01-25T09:00:17.227Z,31.07
2023-01-25T09:02:48.502Z,30.73
2023-01-25T09:05:19.772Z,33.23
2023-01-25T09:07:51.124Z,33.60
2023-01-25T09:10:22.502Z,31.33
2023-01-25T09:12:53.896Z,26.87
2023-01-25T09:15:25.261Z,27.10
2023-01-25T09:17:56.998Z,30.67
2023-01-25T09:20:30.541Z,31.47
2023-01-25T09:23:04.553Z,28.65
2023-01-25T09:25:36.835Z,33.93
2023-01-25T09:28:11.436Z,28.47
2023-01-25T09:30:47.565Z,29.33
2023-01-25T09:33:24.729Z,32.03
2023-01-25T09:35:57.114Z,28.47
2023-01-25T09:38:28.775Z,31.27
2023-01-25T09:41:39.585Z,29.20
2023-01-25T09:44:22.015Z,35.43
2023-01-25T09:46:57.772Z,28.30
2023-01-25T09:49:45.335Z,22.95
2023-01-25T09:52:35.249Z,26.03
2023-01-25T09:55:18.720Z,26.17
2023-01-25T09:57:56.212Z,24.73
2023-01-25T10:00:42.199Z,22.13
2023-01-25T10:03:23.349Z,25.92
2023-01-25T10:05:58.837Z,23.10
2023-01-25T10:08:38.598Z,28.77
2023-01-25T10:11:28.540Z,22.77
2023-01-25T10:14:00.229Z,23.73
2023-01-25T10:16:40.957Z,24.73
2023-01-25T10:19:22.892Z,27.93
2023-01-25T10:22:02.705Z,29.13
2023-01-25T10:24:44.258Z,25.27
2023-01-25T10:27:46.648Z,29.07
2023-01-25T10:30:27.765Z,26.63
2023-01-25T10:33:07.244Z,29.87
2023-01-25T10:35:43.809Z,27.93
2023-01-25T10:38:27.833Z,28.03
2023-01-25T10:41:07.929Z,27.70
2023-01-25T10:43:39.631Z,27.73
2023-01-25T10:46:25.448Z,27.97
2023-01-25T10:48:57.543Z,26.47
2023-01-25T10:51:32.280Z,29.27
2023-01-25T10:54:05.962Z,29.67
2023-01-25T10:56:39.312Z,28.30
2023-01-25T10:59:24.623Z,29.23
2023-01-25T11:01:57.307Z,25.17
2023-01-25T11:04:36.815Z,31.77
2023-01-25T11:07:26.514Z,26.87
2023-01-25T11:09:57.808Z,24.23
2023-01-25T11:12:29.118Z,24.20
2023-01-25T11:15:24.350Z,24.63
2023-01-25T11:18:07.045Z,22.13
2023-01-25T11:20:38.424Z,21.67
2023-01-25T11:23:26.632Z,26.87
2023-01-25T11:26:13.420Z,23.83
2023-01-25T11:28:46.156Z,26.10
2023-01-25T11:31:21.378Z,25.40
2023-01-25T11:33:52.802Z,24.67
2023-01-25T11:36:48.793Z,24.47
2023-01-25T11:39:44.527Z,23.20
2023-01-25T11:42:26.384Z,23.83
2023-01-25T11:45:23.958Z,24.37
2023-01-25T11:48:27.457Z,23.13
2023-01-25T11:51:17.387Z,23.83
2023-01-25T11:54:13.674Z,28.30
2023-01-25T11:56:57.180Z,26.03
2023-01-25T11:59:51.760Z,26.30
2023-01-25T12:02:46.645Z,27.83
2023-01-25T12:05:50.009Z,27.07
2023-01-25T12:08:42.612Z,25.50
2023-01-25T12:11:34.512Z,28.47
2023-01-25T12:14:45.217Z,24.97
2023-01-25T12:17:24.971Z,24.37
2023-01-25T12:20:07.016Z,25.93
2023-01-25T12:23:00.891Z,26.17
2023-01-25T12:25:52.254Z,28.07
2023-01-25T12:28:29.097Z,23.33
2023-01-25T12:31:30.413Z,26.47
2023-01-25T12:34:13.746Z,27.27
2023-01-25T12:36:48.060Z,25.97
2023-01-25T12:39:32.983Z,25.13
2023-01-25T12:42:26.222Z,28.17
2023-01-25T12:45:10.269Z,27.70
2023-01-25T12:47:50.769Z,26.43
2023-01-25T12:50:38.630Z,27.97
2023-01-25T12:53:24.495Z,27.47
2023-01-25T12:55:57.378Z,26.40
2023-01-25T12:59:02.482Z,26.27
2023-01-25T13:01:47.889Z,25.60
2023-01-25T13:04:47.230Z,25.03
2023-01-25T13:07:56.533Z,28.80
2023-01-25T13:10:33.576Z,30.97
2023-01-25T13:13:21.820Z,32.87
2023-01-25T13:15:55.003Z,35.43
2023-01-25T13:18:29.371Z,36.50
2023-01-25T13:21:06.432Z,30.80
2023-01-25T13:23:43.796Z,34.90
2023-01-25T13:26:20.964Z,29.77
2023-01-25T13:28:53.651Z,33.60
2023-01-25T13:31:51.672Z,34.27
2023-01-25T13:34:35.880Z,35.00
2023-01-25T13:37:22.828Z,42.83
2023-01-25T13:42:42.235Z,37.87
2023-01-25T13:45:21.123Z,46.27
2023-01-25T13:48:12.847Z,36.73
2023-01-25T13:50:50.393Z,42.93
2023-01-25T13:53:24.343Z,43.00
2023-01-25T13:55:57.808Z,40.47
2023-01-25T13:58:36.235Z,43.90
2023-01-25T14:01:16.111Z,47.20
2023-01-25T14:03:50.579Z,51.50
2023-01-25T14:06:34.529Z,40.43
2023-01-25T14:09:16.489Z,40.63
2023-01-25T14:11:56.835Z,37.13
2023-01-25T14:14:33.458Z,44.93
2023-01-25T14:17:22.287Z,36.40
2023-01-25T14:19:54.847Z,28.50
2023-01-25T14:22:28.771Z,28.97
2023-01-25T14:25:07.225Z,41.03
2023-01-25T14:28:00.415Z,54.23
2023-01-25T14:30:36.255Z,30.70
2023-01-25T14:33:22.144Z,44.53
2023-01-25T14:35:58.555Z,26.93
2023-01-25T14:38:34.675Z,38.07
2023-01-25T14:41:30.373Z,34.10
2023-01-25T14:44:04.714Z,41.00
2023-01-25T14:46:37.415Z,29.07
2023-01-25T14:49:11.675Z,31.63
2023-01-25T14:51:53.599Z,31.03
2023-01-25T14:54:30.306Z,33.93
2023-01-25T14:57:04.524Z,36.83
2023-01-25T14:59:39.419Z,43.87
2023-01-25T15:02:27.256Z,32.17
2023-01-25T15:05:11.094Z,32.80
2023-01-25T15:07:47.757Z,28.37
2023-01-25T15:10:21.044Z,30.80
2023-01-25T15:13:15.271Z,32.93
2023-01-25T15:15:58.748Z,29.77
2023-01-25T15:18:52.932Z,25.07
2023-01-25T15:21:29.592Z,31.27
2023-01-25T15:24:06.632Z,35.47
2023-01-25T15:26:38.178Z,42.30
2023-01-25T15:29:14.837Z,34.50
2023-01-25T15:31:47.203Z,40.90
2023-01-25T15:34:24.079Z,42.67
2023-01-25T15:36:55.697Z,28.93
2023-01-25T15:39:27.321Z,33.33
2023-01-25T15:41:58.613Z,33.40
2023-01-25T15:44:29.879Z,35.00
2023-01-25T15:47:01.253Z,29.00
2023-01-25T15:49:32.697Z,24.10
2023-01-25T15:52:04.051Z,25.60
2023-01-25T15:54:35.346Z,24.97
2023-01-25T15:57:18.252Z,26.37
2023-01-25T15:59:49.664Z,27.50
2023-01-25T16:02:21.432Z,24.13
2023-01-25T16:04:53.462Z,25.07
2023-01-25T16:07:30.384Z,28.13
2023-01-25T16:10:02.158Z,23.20
2023-01-25T16:12:34.356Z,27.80
2023-01-25T16:15:06.142Z,29.47
2023-01-25T16:17:37.449Z,22.80
2023-01-25T16:20:16.856Z,26.70
2023-01-25T16:22:48.234Z,23.67
2023-01-25T16:25:19.651Z,30.73
2023-01-25T16:27:50.942Z,25.73
2023-01-25T16:30:25.820Z,28.00
2023-01-25T16:32:57.246Z,26.10
2023-01-25T16:35:28.566Z,25.00
2023-01-25T16:37:59.834Z,27.07
2023-01-25T16:40:38.635Z,25.67
2023-01-25T16:43:09.984Z,32.20
2023-01-25T16:45:41.335Z,50.37
2023-01-25T16:48:15.759Z,23.70
2023-01-25T16:50:49.619Z,25.23
2023-01-25T16:53:21.039Z,30.87
2023-01-25T16:55:52.433Z,22.63
2023-01-25T16:58:23.837Z,22.20
2023-01-25T17:00:55.209Z,27.90
2023-01-25T17:03:26.637Z,25.73
2023-01-25T17:05:58.024Z,23.20
2023-01-25T17:08:29.356Z,27.57
2023-01-25T17:11:05.304Z,25.83
2023-01-25T17:13:36.692Z,27.02
2023-01-25T17:16:08.318Z,27.80
2023-01-25T17:18:39.655Z,26.30
2023-01-25T17:21:14.425Z,28.83
2023-01-25T17:23:45.838Z,27.13
2023-01-25T17:26:19.131Z,30.73
2023-01-25T17:28:51.572Z,31.97
2023-01-25T17:31:29.218Z,35.37
2023-01-25T17:34:03.788Z,36.03
2023-01-25T17:36:35.413Z,31.00
2023-01-25T17:39:07.889Z,43.57
2023-01-25T17:41:39.281Z,44.07
2023-01-25T17:44:11.907Z,41.07
2023-01-25T17:46:43.198Z,41.00
2023-01-25T17:49:16.883Z,43.27
2023-01-25T17:51:48.238Z,41.77
2023-01-25T17:54:19.721Z,39.90
2023-01-25T17:56:51.119Z,41.97
2023-01-25T17:59:22.674Z,43.63
2023-01-25T18:01:54.163Z,41.67
2023-01-25T18:04:25.640Z,47.70
2023-01-25T18:06:56.906Z,41.43
2023-01-25T18:09:28.336Z,39.83
2023-01-25T18:11:59.755Z,42.03
2023-01-25T18:14:31.185Z,42.97
2023-01-25T18:17:02.461Z,47.73
2023-01-25T18:19:33.739Z,46.97
2023-01-25T18:22:05.376Z,53.10
2023-01-25T18:24:37.462Z,47.73
2023-01-25T18:27:20.153Z,40.03
2023-01-25T18:30:07.311Z,46.77
2023-01-25T18:32:38.595Z,49.40
2023-01-25T18:35:10.646Z,47.33
2023-01-25T18:37:45.691Z,49.63
2023-01-25T18:40:18.892Z,44.77
2023-01-25T18:42:50.490Z,49.60
2023-01-25T18:45:22.428Z,45.37
2023-01-25T18:47:53.727Z,53.83
2023-01-25T18:50:25.039Z,54.40
2023-01-25T18:52:56.548Z,52.47
2023-01-25T18:55:27.921Z,44.50
2023-01-25T18:58:03.918Z,48.43
2023-01-25T19:00:35.290Z,51.10
2023-01-25T19:03:06.664Z,50.50
2023-01-25T19:05:38.128Z,43.83
2023-01-25T19:08:09.473Z,57.87
2023-01-25T19:10:40.847Z,63.37
2023-01-25T19:13:12.173Z,63.50
2023-01-25T19:15:43.542Z,63.13
2023-01-25T19:18:14.824Z,68.53
2023-01-25T19:20:47.086Z,67.33
2023-01-25T19:23:18.399Z,75.23
2023-01-25T19:25:54.285Z,78.67
2023-01-25T19:28:25.722Z,73.90
2023-01-25T19:30:57.910Z,76.40
2023-01-25T19:33:29.289Z,61.37
2023-01-25T19:36:04.115Z,70.17
2023-01-25T19:38:39.319Z,77.70
2023-01-25T19:41:13.400Z,68.97
2023-01-25T19:43:45.022Z,78.20
2023-01-25T19:46:19.078Z,84.37
2023-01-25T19:48:52.220Z,78.73
2023-01-25T19:51:29.741Z,73.20
2023-01-25T19:54:03.250Z,68.20
2023-01-25T19:56:39.502Z,78.03
2023-01-25T19:59:13.619Z,71.22
2023-01-25T20:01:46.164Z,84.43
2023-01-25T20:04:20.059Z,83.23
2023-01-25T20:06:51.976Z,84.00
2023-01-25T20:09:27.581Z,89.03
2023-01-25T20:12:00.526Z,59.03
2023-01-25T20:14:31.827Z,70.70
2023-01-25T20:17:03.830Z,78.97
2023-01-25T20:19:37.011Z,65.43
2023-01-25T20:22:08.575Z,72.27
2023-01-25T20:24:39.924Z,77.17
2023-01-25T20:27:11.217Z,77.37
2023-01-25T20:29:42.551Z,73.60
2023-01-25T20:32:30.652Z,67.13
2023-01-25T20:35:05.967Z,65.53
2023-01-25T20:37:37.356Z,74.10
2023-01-25T20:40:09.258Z,67.13
2023-01-25T20:42:40.522Z,67.57
2023-01-25T20:45:16.800Z,72.40
2023-01-25T20:47:48.074Z,74.20
2023-01-25T20:50:19.626Z,64.23
2023-01-25T20:52:50.897Z,71.83
2023-01-25T20:55:22.201Z,71.17
2023-01-25T20:57:54.412Z,69.63
2023-01-25T21:00:26.178Z,70.63
2023-01-25T21:02:57.446Z,59.20
2023-01-25T21:05:28.755Z,67.57
2023-01-25T21:08:00.052Z,68.40
2023-01-25T21:10:31.545Z,65.30
2023-01-25T21:13:02.811Z,63.87
2023-01-25T21:15:34.210Z,62.10
2023-01-25T21:18:05.578Z,64.80
2023-01-25T21:20:36.924Z,68.13
2023-01-25T21:23:08.173Z,58.93
2023-01-25T21:25:39.432Z,62.03
2023-01-25T21:28:10.688Z,63.27
2023-01-25T21:30:41.992Z,57.33
2023-01-25T21:33:13.269Z,53.33
2023-01-25T21:35:45.565Z,60.43
2023-01-25T21:38:17.009Z,67.03
2023-01-25T21:40:48.271Z,51.13
2023-01-25T21:43:19.626Z,60.93
2023-01-25T21:46:09.772Z,57.50
2023-01-25T21:48:59.612Z,53.80
2023-01-25T21:51:37.059Z,49.20
2023-01-25T21:54:08.335Z,54.40
2023-01-25T21:56:39.626Z,56.53
2023-01-25T21:59:10.942Z,54.93
2023-01-25T22:01:45.764Z,56.90
2023-01-25T22:04:18.933Z,54.90
2023-01-25T22:06:52.375Z,49.67
2023-01-25T22:09:23.641Z,53.47
2023-01-25T22:11:54.984Z,57.97
2023-01-25T22:14:26.247Z,50.70
2023-01-25T22:16:57.963Z,56.97
2023-01-25T22:19:29.373Z,46.30
2023-01-25T22:22:00.635Z,50.43
2023-01-25T22:24:31.910Z,43.33
2023-01-25T22:27:03.139Z,42.97
2023-01-25T22:29:34.406Z,50.73
2023-01-25T22:32:05.721Z,43.17
2023-01-25T22:34:37.890Z,51.07
2023-01-25T22:37:12.247Z,48.50
2023-01-25T22:39:44.704Z,53.10
2023-01-25T22:42:15.970Z,53.97
2023-01-25T22:44:47.209Z,46.53
2023-01-25T22:47:18.717Z,45.63
2023-01-25T22:49:49.960Z,45.73
2023-01-25T22:52:21.377Z,48.17
2023-01-25T22:54:52.773Z,48.17
2023-01-25T22:57:24.083Z,48.90
2023-01-25T22:59:55.521Z,50.17
2023-01-25T23:02:26.787Z,49.03
2023-01-25T23:04:58.112Z,50.30
2023-01-25T23:07:29.478Z,47.00
2023-01-25T23:10:00.737Z,44.97
2023-01-25T23:12:32.118Z,54.33
2023-01-25T23:15:07.126Z,44.00
2023-01-25T23:17:56.833Z,51.20
2023-01-25T23:20:29.769Z,41.77
2023-01-25T23:23:01.132Z,43.37
2023-01-25T23:25:32.592Z,49.37
2023-01-25T23:28:03.898Z,57.80
2023-01-25T23:30:35.355Z,41.87
2023-01-25T23:33:06.646Z,49.93
2023-01-25T23:35:37.902Z,50.20
2023-01-25T23:38:14.896Z,43.13
2023-01-25T23:40:46.273Z,46.30
2023-01-25T23:43:17.532Z,44.97
2023-01-25T23:45:49.033Z,42.10
2023-01-25T23:48:20.417Z,43.43
2023-01-25T23:50:52.507Z,45.43
2023-01-25T23:53:25.635Z,48.63
2023-01-25T23:56:08.249Z,41.27
2023-01-25T23:58:40.167Z,43.37
